sensor_id;sensor_type;location;lat;lon;timestamp;temperature;humidity
33476;DHT22;19814;48.224;11.422;2023-02-10T00:00:08;-3.10;99.90
33476;DHT22;19814;48.224;11.422;2023-02-10T00:02:33;-3.10;99.90
33476;DHT22;19814;48.224;11.422;2023-02-10T00:04:59;-3.20;99.90
33476;DHT22;19814;48.224;11.422;2023-02-10T00:07:24;-3.30;99.90
33476;DHT22;19814;48.224;11.422;2023-02-10T00:09:50;-3.30;99.90
33476;DHT22;19814;48.224;11.422;2023-02-10T00:12:15;-3.40;99.90
33476;DHT22;19814;48.224;11.422;2023-02-10T00:14:41;-3.40;99.90
33476;DHT22;19814;48.224;11.422;2023-02-10T00:17:07;-3.40;99.90
33476;DHT22;19814;48.224;11.422;2023-02-10T00:19:32;-3.50;99.90
33476;DHT22;19814;48.224;11.422;2023-02-10T00:21:58;-3.40;99.90
33476;DHT22;19814;48.224;11.422;2023-02-10T00:24:24;-3.40;99.90
33476;DHT22;19814;48.224;11.422;2023-02-10T00:26:49;-3.40;99.90
33476;DHT22;19814;48.224;11.422;2023-02-10T00:29:15;-3.50;99.90
33476;DHT22;19814;48.224;11.422;2023-02-10T00:31:41;-3.50;99.90
33476;DHT22;19814;48.224;11.422;2023-02-10T00:34:07;-3.50;99.90
33476;DHT22;19814;48.224;11.422;2023-02-10T00:36:33;-3.50;99.90
33476;DHT22;19814;48.224;11.422;2023-02-10T00:38:59;-3.50;99.90
33476;DHT22;19814;48.224;11.422;2023-02-10T00:41:24;-3.50;99.90
33476;DHT22;19814;48.224;11.422;2023-02-10T00:43:50;-3.50;99.90
33476;DHT22;19814;48.224;11.422;2023-02-10T00:46:16;-3.50;99.90
33476;DHT22;19814;48.224;11.422;2023-02-10T00:48:42;-3.40;99.90
33476;DHT22;19814;48.224;11.422;2023-02-10T00:51:08;-3.50;99.90
33476;DHT22;19814;48.224;11.422;2023-02-10T00:53:34;-3.40;99.90
33476;DHT22;19814;48.224;11.422;2023-02-10T00:55:59;-3.40;99.90
33476;DHT22;19814;48.224;11.422;2023-02-10T00:58:25;-3.30;99.90
33476;DHT22;19814;48.224;11.422;2023-02-10T01:00:53;-3.40;99.90
33476;DHT22;19814;48.224;11.422;2023-02-10T01:03:19;-3.40;99.90
33476;DHT22;19814;48.224;11.422;2023-02-10T01:05:44;-3.40;99.90
33476;DHT22;19814;48.224;11.422;2023-02-10T01:08:10;-3.40;99.90
33476;DHT22;19814;48.224;11.422;2023-02-10T01:10:36;-3.40;99.90
33476;DHT22;19814;48.224;11.422;2023-02-10T01:13:02;-3.40;99.90
33476;DHT22;19814;48.224;11.422;2023-02-10T01:15:27;-3.50;99.90
33476;DHT22;19814;48.224;11.422;2023-02-10T01:17:53;-3.50;99.90
33476;DHT22;19814;48.224;11.422;2023-02-10T01:20:18;-3.40;99.90
33476;DHT22;19814;48.224;11.422;2023-02-10T01:22:44;-3.40;99.90
33476;DHT22;19814;48.224;11.422;2023-02-10T01:25:09;-3.30;99.90
33476;DHT22;19814;48.224;11.422;2023-02-10T01:27:35;-3.20;99.90
33476;DHT22;19814;48.224;11.422;2023-02-10T01:30:00;-3.20;99.90
33476;DHT22;19814;48.224;11.422;2023-02-10T01:32:26;-3.20;99.90
33476;DHT22;19814;48.224;11.422;2023-02-10T01:34:52;-3.30;99.90
33476;DHT22;19814;48.224;11.422;2023-02-10T01:37:17;-3.30;99.90
33476;DHT22;19814;48.224;11.422;2023-02-10T01:39:43;-3.40;99.90
33476;DHT22;19814;48.224;11.422;2023-02-10T01:42:17;-3.50;99.90
33476;DHT22;19814;48.224;11.422;2023-02-10T01:47:08;-3.60;99.90
33476;DHT22;19814;48.224;11.422;2023-02-10T01:49:36;-3.60;99.90
33476;DHT22;19814;48.224;11.422;2023-02-10T01:52:06;-3.70;99.90
33476;DHT22;19814;48.224;11.422;2023-02-10T01:54:37;-3.70;99.90
33476;DHT22;19814;48.224;11.422;2023-02-10T01:57:04;-3.80;99.90
33476;DHT22;19814;48.224;11.422;2023-02-10T01:59:33;-3.80;99.90
33476;DHT22;19814;48.224;11.422;2023-02-10T02:02:00;-3.80;99.90
33476;DHT22;19814;48.224;11.422;2023-02-10T02:04:34;-3.80;99.90
33476;DHT22;19814;48.224;11.422;2023-02-10T02:07:02;-3.90;99.90
33476;DHT22;19814;48.224;11.422;2023-02-10T02:09:28;-3.90;99.90
33476;DHT22;19814;48.224;11.422;2023-02-10T02:15:05;-4.00;99.90
33476;DHT22;19814;48.224;11.422;2023-02-10T02:18:08;-4.00;99.90
33476;DHT22;19814;48.224;11.422;2023-02-10T02:33:33;-3.90;99.90
33476;DHT22;19814;48.224;11.422;2023-02-10T02:36:08;-3.90;99.90
33476;DHT22;19814;48.224;11.422;2023-02-10T02:38:37;-3.90;99.90
33476;DHT22;19814;48.224;11.422;2023-02-10T02:41:03;-3.90;99.90
33476;DHT22;19814;48.224;11.422;2023-02-10T02:43:28;-4.00;99.90
33476;DHT22;19814;48.224;11.422;2023-02-10T02:46:05;-3.90;99.90
33476;DHT22;19814;48.224;11.422;2023-02-10T02:54:08;-4.00;99.90
33476;DHT22;19814;48.224;11.422;2023-02-10T03:01:36;-4.00;99.90
33476;DHT22;19814;48.224;11.422;2023-02-10T03:04:02;-4.00;99.90
33476;DHT22;19814;48.224;11.422;2023-02-10T03:06:28;-4.00;99.90
33476;DHT22;19814;48.224;11.422;2023-02-10T03:08:54;-4.00;99.90
33476;DHT22;19814;48.224;11.422;2023-02-10T03:11:19;-4.00;99.90
33476;DHT22;19814;48.224;11.422;2023-02-10T03:13:45;-3.90;99.90
33476;DHT22;19814;48.224;11.422;2023-02-10T03:16:10;-4.10;99.90
33476;DHT22;19814;48.224;11.422;2023-02-10T03:18:36;-4.20;99.90
33476;DHT22;19814;48.224;11.422;2023-02-10T03:21:01;-4.30;99.90
33476;DHT22;19814;48.224;11.422;2023-02-10T03:23:27;-4.30;99.90
33476;DHT22;19814;48.224;11.422;2023-02-10T03:25:52;-4.30;99.90
33476;DHT22;19814;48.224;11.422;2023-02-10T03:28:18;-4.20;99.90
33476;DHT22;19814;48.224;11.422;2023-02-10T03:30:43;-4.10;99.90
33476;DHT22;19814;48.224;11.422;2023-02-10T03:33:13;-4.10;99.90
33476;DHT22;19814;48.224;11.422;2023-02-10T03:35:38;-4.10;99.90
33476;DHT22;19814;48.224;11.422;2023-02-10T03:38:05;-4.00;99.90
33476;DHT22;19814;48.224;11.422;2023-02-10T03:40:30;-4.00;99.90
33476;DHT22;19814;48.224;11.422;2023-02-10T03:42:56;-4.10;99.90
33476;DHT22;19814;48.224;11.422;2023-02-10T03:45:21;-4.20;99.90
33476;DHT22;19814;48.224;11.422;2023-02-10T03:47:46;-4.20;99.90
33476;DHT22;19814;48.224;11.422;2023-02-10T03:50:12;-4.20;99.90
33476;DHT22;19814;48.224;11.422;2023-02-10T03:52:37;-4.40;99.90
33476;DHT22;19814;48.224;11.422;2023-02-10T03:55:03;-4.40;99.90
33476;DHT22;19814;48.224;11.422;2023-02-10T03:57:28;-4.40;99.90
33476;DHT22;19814;48.224;11.422;2023-02-10T03:59:54;-4.30;99.90
33476;DHT22;19814;48.224;11.422;2023-02-10T04:02:19;-4.20;99.90
33476;DHT22;19814;48.224;11.422;2023-02-10T04:04:45;-4.10;99.90
33476;DHT22;19814;48.224;11.422;2023-02-10T04:07:11;-4.00;99.90
33476;DHT22;19814;48.224;11.422;2023-02-10T04:09:36;-3.90;99.90
33476;DHT22;19814;48.224;11.422;2023-02-10T04:12:02;-3.90;99.90
33476;DHT22;19814;48.224;11.422;2023-02-10T04:14:27;-3.90;99.90
33476;DHT22;19814;48.224;11.422;2023-02-10T04:16:53;-3.90;99.90
33476;DHT22;19814;48.224;11.422;2023-02-10T04:19:18;-3.90;99.90
33476;DHT22;19814;48.224;11.422;2023-02-10T04:21:44;-4.00;99.90
33476;DHT22;19814;48.224;11.422;2023-02-10T04:24:09;-4.00;99.90
33476;DHT22;19814;48.224;11.422;2023-02-10T04:26:34;-4.00;99.90
33476;DHT22;19814;48.224;11.422;2023-02-10T04:29:00;-4.00;99.90
33476;DHT22;19814;48.224;11.422;2023-02-10T04:31:25;-3.90;99.90
33476;DHT22;19814;48.224;11.422;2023-02-10T04:33:51;-3.90;99.90
33476;DHT22;19814;48.224;11.422;2023-02-10T04:36:16;-4.00;99.90
33476;DHT22;19814;48.224;11.422;2023-02-10T04:38:42;-4.00;99.90
33476;DHT22;19814;48.224;11.422;2023-02-10T04:41:07;-4.00;99.90
33476;DHT22;19814;48.224;11.422;2023-02-10T04:43:33;-4.00;99.90
33476;DHT22;19814;48.224;11.422;2023-02-10T04:45:58;-4.00;99.90
33476;DHT22;19814;48.224;11.422;2023-02-10T04:48:24;-4.00;99.90
33476;DHT22;19814;48.224;11.422;2023-02-10T04:50:49;-4.20;99.90
33476;DHT22;19814;48.224;11.422;2023-02-10T04:53:15;-4.30;99.90
33476;DHT22;19814;48.224;11.422;2023-02-10T04:55:40;-4.40;99.90
33476;DHT22;19814;48.224;11.422;2023-02-10T04:58:06;-4.60;99.90
33476;DHT22;19814;48.224;11.422;2023-02-10T05:00:32;-4.60;99.90
33476;DHT22;19814;48.224;11.422;2023-02-10T05:02:57;-4.60;99.90
33476;DHT22;19814;48.224;11.422;2023-02-10T05:05:23;-4.70;99.90
33476;DHT22;19814;48.224;11.422;2023-02-10T05:07:50;-4.70;99.90
33476;DHT22;19814;48.224;11.422;2023-02-10T05:10:15;-4.70;99.90
33476;DHT22;19814;48.224;11.422;2023-02-10T05:12:41;-4.60;99.90
33476;DHT22;19814;48.224;11.422;2023-02-10T05:15:06;-4.60;99.90
33476;DHT22;19814;48.224;11.422;2023-02-10T05:17:33;-4.70;99.90
33476;DHT22;19814;48.224;11.422;2023-02-10T05:19:58;-4.70;99.90
33476;DHT22;19814;48.224;11.422;2023-02-10T05:22:24;-4.80;99.90
33476;DHT22;19814;48.224;11.422;2023-02-10T05:24:55;-4.80;99.90
33476;DHT22;19814;48.224;11.422;2023-02-10T05:27:22;-4.80;99.90
33476;DHT22;19814;48.224;11.422;2023-02-10T05:29:48;-4.70;99.90
33476;DHT22;19814;48.224;11.422;2023-02-10T05:32:14;-4.80;99.90
33476;DHT22;19814;48.224;11.422;2023-02-10T05:34:39;-4.80;99.90
33476;DHT22;19814;48.224;11.422;2023-02-10T05:37:05;-4.80;99.90
33476;DHT22;19814;48.224;11.422;2023-02-10T05:39:30;-4.70;99.90
33476;DHT22;19814;48.224;11.422;2023-02-10T05:41:56;-4.70;99.90
33476;DHT22;19814;48.224;11.422;2023-02-10T05:44:22;-4.70;99.90
33476;DHT22;19814;48.224;11.422;2023-02-10T05:46:48;-4.70;99.90
33476;DHT22;19814;48.224;11.422;2023-02-10T05:49:14;-4.70;99.90
33476;DHT22;19814;48.224;11.422;2023-02-10T05:51:39;-4.70;99.90
33476;DHT22;19814;48.224;11.422;2023-02-10T05:54:05;-4.70;99.90
33476;DHT22;19814;48.224;11.422;2023-02-10T05:56:30;-4.70;99.90
33476;DHT22;19814;48.224;11.422;2023-02-10T05:58:56;-4.70;99.90
33476;DHT22;19814;48.224;11.422;2023-02-10T06:01:21;-4.70;99.90
33476;DHT22;19814;48.224;11.422;2023-02-10T06:03:47;-4.80;99.90
33476;DHT22;19814;48.224;11.422;2023-02-10T06:06:12;-4.90;99.90
33476;DHT22;19814;48.224;11.422;2023-02-10T06:08:38;-4.90;99.90
33476;DHT22;19814;48.224;11.422;2023-02-10T06:11:03;-4.90;99.90
33476;DHT22;19814;48.224;11.422;2023-02-10T06:13:29;-4.90;99.90
33476;DHT22;19814;48.224;11.422;2023-02-10T06:15:54;-4.90;99.90
33476;DHT22;19814;48.224;11.422;2023-02-10T06:18:20;-4.90;99.90
33476;DHT22;19814;48.224;11.422;2023-02-10T06:20:45;-4.90;99.90
33476;DHT22;19814;48.224;11.422;2023-02-10T06:23:11;-4.90;99.90
33476;DHT22;19814;48.224;11.422;2023-02-10T06:25:37;-4.90;99.90
33476;DHT22;19814;48.224;11.422;2023-02-10T06:28:02;-4.90;99.90
33476;DHT22;19814;48.224;11.422;2023-02-10T06:30:28;-4.90;99.90
33476;DHT22;19814;48.224;11.422;2023-02-10T06:32:53;-4.90;99.90
33476;DHT22;19814;48.224;11.422;2023-02-10T06:35:19;-4.80;99.90
33476;DHT22;19814;48.224;11.422;2023-02-10T06:37:44;-4.70;99.90
33476;DHT22;19814;48.224;11.422;2023-02-10T06:40:10;-4.50;99.90
33476;DHT22;19814;48.224;11.422;2023-02-10T06:42:35;-4.50;99.90
33476;DHT22;19814;48.224;11.422;2023-02-10T06:45:01;-4.50;99.90
33476;DHT22;19814;48.224;11.422;2023-02-10T06:47:26;-4.50;99.90
33476;DHT22;19814;48.224;11.422;2023-02-10T06:49:52;-4.50;99.90
33476;DHT22;19814;48.224;11.422;2023-02-10T06:52:17;-4.50;99.90
33476;DHT22;19814;48.224;11.422;2023-02-10T06:54:43;-4.50;99.90
33476;DHT22;19814;48.224;11.422;2023-02-10T06:57:09;-4.40;99.90
33476;DHT22;19814;48.224;11.422;2023-02-10T06:59:34;-4.30;99.90
33476;DHT22;19814;48.224;11.422;2023-02-10T07:02:00;-4.30;99.90
33476;DHT22;19814;48.224;11.422;2023-02-10T07:04:27;-4.20;99.90
33476;DHT22;19814;48.224;11.422;2023-02-10T07:06:53;-4.20;99.90
33476;DHT22;19814;48.224;11.422;2023-02-10T07:09:18;-4.20;99.90
33476;DHT22;19814;48.224;11.422;2023-02-10T07:11:43;-4.10;99.90
33476;DHT22;19814;48.224;11.422;2023-02-10T07:14:09;-4.00;99.90
33476;DHT22;19814;48.224;11.422;2023-02-10T07:16:34;-3.80;99.90
33476;DHT22;19814;48.224;11.422;2023-02-10T07:19:00;-3.50;99.90
33476;DHT22;19814;48.224;11.422;2023-02-10T07:21:25;-3.00;99.90
33476;DHT22;19814;48.224;11.422;2023-02-10T07:23:51;-2.70;99.90
33476;DHT22;19814;48.224;11.422;2023-02-10T07:26:16;-2.40;99.90
33476;DHT22;19814;48.224;11.422;2023-02-10T07:28:45;-2.10;99.90
33476;DHT22;19814;48.224;11.422;2023-02-10T07:31:10;-1.80;99.90
33476;DHT22;19814;48.224;11.422;2023-02-10T07:33:36;-1.30;99.90
33476;DHT22;19814;48.224;11.422;2023-02-10T07:36:02;-0.90;99.90
33476;DHT22;19814;48.224;11.422;2023-02-10T07:38:30;-0.50;99.90
33476;DHT22;19814;48.224;11.422;2023-02-10T07:40:56;0.10;99.90
33476;DHT22;19814;48.224;11.422;2023-02-10T07:43:21;0.60;99.90
33476;DHT22;19814;48.224;11.422;2023-02-10T07:45:46;1.60;99.90
33476;DHT22;19814;48.224;11.422;2023-02-10T07:48:12;2.30;99.50
33476;DHT22;19814;48.224;11.422;2023-02-10T07:50:37;3.00;98.40
33476;DHT22;19814;48.224;11.422;2023-02-10T07:53:03;3.20;96.50
33476;DHT22;19814;48.224;11.422;2023-02-10T07:55:28;3.60;97.30
33476;DHT22;19814;48.224;11.422;2023-02-10T07:57:54;4.20;95.90
33476;DHT22;19814;48.224;11.422;2023-02-10T08:00:19;5.00;94.70
33476;DHT22;19814;48.224;11.422;2023-02-10T08:02:45;5.10;92.40
33476;DHT22;19814;48.224;11.422;2023-02-10T08:05:10;5.20;93.30
33476;DHT22;19814;48.224;11.422;2023-02-10T08:07:36;5.70;91.80
33476;DHT22;19814;48.224;11.422;2023-02-10T08:10:01;5.80;92.40
33476;DHT22;19814;48.224;11.422;2023-02-10T08:12:27;5.90;91.10
33476;DHT22;19814;48.224;11.422;2023-02-10T08:14:52;5.60;90.50
33476;DHT22;19814;48.224;11.422;2023-02-10T08:17:19;5.80;92.60
33476;DHT22;19814;48.224;11.422;2023-02-10T08:19:44;6.40;91.10
33476;DHT22;19814;48.224;11.422;2023-02-10T08:22:09;7.20;88.80
33476;DHT22;19814;48.224;11.422;2023-02-10T08:24:35;7.00;89.20
33476;DHT22;19814;48.224;11.422;2023-02-10T08:27:00;7.30;87.60
33476;DHT22;19814;48.224;11.422;2023-02-10T08:29:26;7.60;87.30
33476;DHT22;19814;48.224;11.422;2023-02-10T08:31:51;7.90;86.10
33476;DHT22;19814;48.224;11.422;2023-02-10T08:34:18;8.00;86.80
33476;DHT22;19814;48.224;11.422;2023-02-10T08:36:44;8.30;84.40
33476;DHT22;19814;48.224;11.422;2023-02-10T08:39:09;8.30;85.20
33476;DHT22;19814;48.224;11.422;2023-02-10T08:41:35;8.60;84.40
33476;DHT22;19814;48.224;11.422;2023-02-10T08:44:00;9.00;83.10
33476;DHT22;19814;48.224;11.422;2023-02-10T08:46:26;8.80;82.70
33476;DHT22;19814;48.224;11.422;2023-02-10T08:48:52;9.10;81.90
33476;DHT22;19814;48.224;11.422;2023-02-10T08:51:17;9.40;80.10
33476;DHT22;19814;48.224;11.422;2023-02-10T08:53:43;9.60;79.90
33476;DHT22;19814;48.224;11.422;2023-02-10T08:56:10;9.50;75.80
33476;DHT22;19814;48.224;11.422;2023-02-10T08:58:35;9.70;78.40
33476;DHT22;19814;48.224;11.422;2023-02-10T09:01:01;9.80;74.40
33476;DHT22;19814;48.224;11.422;2023-02-10T09:03:27;9.30;75.40
33476;DHT22;19814;48.224;11.422;2023-02-10T09:05:53;8.80;74.30
33476;DHT22;19814;48.224;11.422;2023-02-10T09:08:19;8.80;77.00
33476;DHT22;19814;48.224;11.422;2023-02-10T09:10:45;9.00;75.50
33476;DHT22;19814;48.224;11.422;2023-02-10T09:13:11;9.30;77.40
33476;DHT22;19814;48.224;11.422;2023-02-10T09:15:37;9.70;73.90
33476;DHT22;19814;48.224;11.422;2023-02-10T09:18:03;10.00;74.50
33476;DHT22;19814;48.224;11.422;2023-02-10T09:20:29;10.10;72.00
33476;DHT22;19814;48.224;11.422;2023-02-10T09:22:54;10.50;73.90
33476;DHT22;19814;48.224;11.422;2023-02-10T09:25:20;11.30;70.10
33476;DHT22;19814;48.224;11.422;2023-02-10T09:27:45;12.10;67.10
33476;DHT22;19814;48.224;11.422;2023-02-10T09:30:11;12.40;65.30
33476;DHT22;19814;48.224;11.422;2023-02-10T09:32:36;12.80;64.90
33476;DHT22;19814;48.224;11.422;2023-02-10T09:35:02;13.80;60.40
33476;DHT22;19814;48.224;11.422;2023-02-10T09:37:27;13.70;61.60
33476;DHT22;19814;48.224;11.422;2023-02-10T09:39:52;14.10;58.20
33476;DHT22;19814;48.224;11.422;2023-02-10T09:42:25;14.60;56.70
33476;DHT22;19814;48.224;11.422;2023-02-10T09:44:52;14.30;55.80
33476;DHT22;19814;48.224;11.422;2023-02-10T09:54:46;15.60;53.40
33476;DHT22;19814;48.224;11.422;2023-02-10T09:57:16;16.20;52.10
33476;DHT22;19814;48.224;11.422;2023-02-10T09:59:43;16.40;49.30
33476;DHT22;19814;48.224;11.422;2023-02-10T10:02:17;15.80;52.40
33476;DHT22;19814;48.224;11.422;2023-02-10T10:04:44;16.40;50.50
33476;DHT22;19814;48.224;11.422;2023-02-10T10:09:37;17.60;50.70
33476;DHT22;19814;48.224;11.422;2023-02-10T10:12:07;18.30;48.60
33476;DHT22;19814;48.224;11.422;2023-02-10T10:14:33;18.80;45.40
33476;DHT22;19814;48.224;11.422;2023-02-10T10:19:36;19.70;44.20
33476;DHT22;19814;48.224;11.422;2023-02-10T10:24:42;19.90;42.60
33476;DHT22;19814;48.224;11.422;2023-02-10T10:27:26;19.80;42.30
33476;DHT22;19814;48.224;11.422;2023-02-10T10:29:57;19.30;43.00
33476;DHT22;19814;48.224;11.422;2023-02-10T10:35:11;20.40;41.40
33476;DHT22;19814;48.224;11.422;2023-02-10T10:37:39;20.20;42.00
33476;DHT22;19814;48.224;11.422;2023-02-10T10:40:05;20.50;40.90
33476;DHT22;19814;48.224;11.422;2023-02-10T10:42:41;20.40;41.50
33476;DHT22;19814;48.224;11.422;2023-02-10T10:45:13;19.70;41.50
33476;DHT22;19814;48.224;11.422;2023-02-10T10:47:42;19.60;41.90
33476;DHT22;19814;48.224;11.422;2023-02-10T10:50:13;20.50;39.50
33476;DHT22;19814;48.224;11.422;2023-02-10T10:52:41;19.50;43.00
33476;DHT22;19814;48.224;11.422;2023-02-10T10:55:12;20.60;40.90
33476;DHT22;19814;48.224;11.422;2023-02-10T10:57:39;20.30;41.80
33476;DHT22;19814;48.224;11.422;2023-02-10T11:02:52;20.70;40.50
33476;DHT22;19814;48.224;11.422;2023-02-10T11:05:18;21.20;38.80
33476;DHT22;19814;48.224;11.422;2023-02-10T11:07:47;21.40;38.60
33476;DHT22;19814;48.224;11.422;2023-02-10T11:10:20;21.40;38.20
33476;DHT22;19814;48.224;11.422;2023-02-10T11:12:46;21.50;37.70
33476;DHT22;19814;48.224;11.422;2023-02-10T11:15:26;21.10;37.40
33476;DHT22;19814;48.224;11.422;2023-02-10T11:17:53;21.00;37.40
33476;DHT22;19814;48.224;11.422;2023-02-10T11:20:26;21.30;37.30
33476;DHT22;19814;48.224;11.422;2023-02-10T11:22:56;21.40;37.40
33476;DHT22;19814;48.224;11.422;2023-02-10T11:27:51;21.90;36.30
33476;DHT22;19814;48.224;11.422;2023-02-10T11:30:27;22.00;36.30
33476;DHT22;19814;48.224;11.422;2023-02-10T11:32:53;21.80;36.50
33476;DHT22;19814;48.224;11.422;2023-02-10T11:35:19;21.90;36.50
33476;DHT22;19814;48.224;11.422;2023-02-10T11:37:49;22.00;40.60
33476;DHT22;19814;48.224;11.422;2023-02-10T11:40:16;22.30;37.60
33476;DHT22;19814;48.224;11.422;2023-02-10T11:42:45;21.90;39.60
33476;DHT22;19814;48.224;11.422;2023-02-10T11:45:16;22.10;37.70
33476;DHT22;19814;48.224;11.422;2023-02-10T11:47:42;21.70;39.70
33476;DHT22;19814;48.224;11.422;2023-02-10T11:50:21;22.80;37.00
33476;DHT22;19814;48.224;11.422;2023-02-10T11:52:47;22.90;37.60
33476;DHT22;19814;48.224;11.422;2023-02-10T11:55:13;23.30;37.20
33476;DHT22;19814;48.224;11.422;2023-02-10T11:57:49;23.80;36.00
33476;DHT22;19814;48.224;11.422;2023-02-10T12:00:39;24.30;36.00
33476;DHT22;19814;48.224;11.422;2023-02-10T12:05:49;23.60;35.70
33476;DHT22;19814;48.224;11.422;2023-02-10T12:10:48;22.90;37.30
33476;DHT22;19814;48.224;11.422;2023-02-10T12:13:26;23.30;37.00
33476;DHT22;19814;48.224;11.422;2023-02-10T12:15:58;22.40;37.50
33476;DHT22;19814;48.224;11.422;2023-02-10T12:18:31;20.90;38.30
33476;DHT22;19814;48.224;11.422;2023-02-10T12:22:01;21.40;35.90
33476;DHT22;19814;48.224;11.422;2023-02-10T12:31:55;22.90;34.90
33476;DHT22;19814;48.224;11.422;2023-02-10T12:36:54;24.00;33.60
33476;DHT22;19814;48.224;11.422;2023-02-10T12:39:36;24.30;32.70
33476;DHT22;19814;48.224;11.422;2023-02-10T12:42:39;23.60;33.60
33476;DHT22;19814;48.224;11.422;2023-02-10T12:45:06;22.90;35.70
33476;DHT22;19814;48.224;11.422;2023-02-10T12:50:52;22.90;36.10
33476;DHT22;19814;48.224;11.422;2023-02-10T12:53:25;22.50;34.70
33476;DHT22;19814;48.224;11.422;2023-02-10T12:55:54;22.40;35.90
33476;DHT22;19814;48.224;11.422;2023-02-10T12:58:25;22.30;36.00
33476;DHT22;19814;48.224;11.422;2023-02-10T13:03:33;19.10;39.40
33476;DHT22;19814;48.224;11.422;2023-02-10T13:08:32;16.80;41.60
33476;DHT22;19814;48.224;11.422;2023-02-10T13:11:00;15.90;43.50
33476;DHT22;19814;48.224;11.422;2023-02-10T13:13:27;14.80;45.40
33476;DHT22;19814;48.224;11.422;2023-02-10T13:15:55;13.90;48.10
33476;DHT22;19814;48.224;11.422;2023-02-10T13:18:26;13.60;48.00
33476;DHT22;19814;48.224;11.422;2023-02-10T13:21:04;12.90;49.10
33476;DHT22;19814;48.224;11.422;2023-02-10T13:23:39;12.60;49.50
33476;DHT22;19814;48.224;11.422;2023-02-10T13:29:06;11.30;52.30
33476;DHT22;19814;48.224;11.422;2023-02-10T13:36:42;11.10;54.30
33476;DHT22;19814;48.224;11.422;2023-02-10T13:39:19;10.80;55.40
33476;DHT22;19814;48.224;11.422;2023-02-10T13:41:46;10.90;56.60
33476;DHT22;19814;48.224;11.422;2023-02-10T13:44:22;10.90;56.50
33476;DHT22;19814;48.224;11.422;2023-02-10T13:46:54;10.80;54.80
33476;DHT22;19814;48.224;11.422;2023-02-10T13:49:20;10.60;56.10
33476;DHT22;19814;48.224;11.422;2023-02-10T13:51:46;10.20;56.60
33476;DHT22;19814;48.224;11.422;2023-02-10T13:54:23;10.00;56.50
33476;DHT22;19814;48.224;11.422;2023-02-10T13:56:52;9.70;57.80
33476;DHT22;19814;48.224;11.422;2023-02-10T14:04:29;9.10;59.40
33476;DHT22;19814;48.224;11.422;2023-02-10T14:07:01;9.20;58.80
33476;DHT22;19814;48.224;11.422;2023-02-10T14:09:38;9.30;58.60
33476;DHT22;19814;48.224;11.422;2023-02-10T14:12:05;9.10;59.70
33476;DHT22;19814;48.224;11.422;2023-02-10T14:14:43;9.00;59.40
33476;DHT22;19814;48.224;11.422;2023-02-10T14:19:41;8.70;60.60
33476;DHT22;19814;48.224;11.422;2023-02-10T14:22:21;8.50;60.70
33476;DHT22;19814;48.224;11.422;2023-02-10T14:24:48;8.30;60.90
33476;DHT22;19814;48.224;11.422;2023-02-10T14:27:14;8.10;61.80
33476;DHT22;19814;48.224;11.422;2023-02-10T14:29:42;7.80;62.50
33476;DHT22;19814;48.224;11.422;2023-02-10T14:32:11;7.50;64.80
33476;DHT22;19814;48.224;11.422;2023-02-10T14:34:37;7.40;65.10
33476;DHT22;19814;48.224;11.422;2023-02-10T14:39:39;7.20;65.40
33476;DHT22;19814;48.224;11.422;2023-02-10T14:42:05;7.10;65.00
33476;DHT22;19814;48.224;11.422;2023-02-10T14:44:39;7.10;64.10
33476;DHT22;19814;48.224;11.422;2023-02-10T14:47:05;7.00;64.60
33476;DHT22;19814;48.224;11.422;2023-02-10T14:49:31;7.00;64.40
33476;DHT22;19814;48.224;11.422;2023-02-10T14:52:01;6.90;63.80
33476;DHT22;19814;48.224;11.422;2023-02-10T14:54:26;6.70;65.10
33476;DHT22;19814;48.224;11.422;2023-02-10T14:56:59;6.60;67.40
33476;DHT22;19814;48.224;11.422;2023-02-10T14:59:29;6.50;66.90
33476;DHT22;19814;48.224;11.422;2023-02-10T15:01:58;6.40;67.80
33476;DHT22;19814;48.224;11.422;2023-02-10T15:04:24;6.40;66.80
33476;DHT22;19814;48.224;11.422;2023-02-10T15:06:54;6.40;67.00
33476;DHT22;19814;48.224;11.422;2023-02-10T15:09:25;6.40;67.10
33476;DHT22;19814;48.224;11.422;2023-02-10T15:11:53;6.30;66.40
33476;DHT22;19814;48.224;11.422;2023-02-10T15:17:05;6.00;68.40
33476;DHT22;19814;48.224;11.422;2023-02-10T15:19:32;5.80;68.60
33476;DHT22;19814;48.224;11.422;2023-02-10T15:21:58;5.70;70.00
33476;DHT22;19814;48.224;11.422;2023-02-10T15:24:26;5.60;71.10
33476;DHT22;19814;48.224;11.422;2023-02-10T15:26:52;5.40;71.30
33476;DHT22;19814;48.224;11.422;2023-02-10T15:29:17;5.40;71.60
33476;DHT22;19814;48.224;11.422;2023-02-10T15:31:53;5.40;72.50
33476;DHT22;19814;48.224;11.422;2023-02-10T15:34:26;5.30;73.40
33476;DHT22;19814;48.224;11.422;2023-02-10T15:36:58;5.30;73.70
33476;DHT22;19814;48.224;11.422;2023-02-10T15:39:27;5.40;73.70
33476;DHT22;19814;48.224;11.422;2023-02-10T15:46:43;5.30;72.70
33476;DHT22;19814;48.224;11.422;2023-02-10T15:49:13;5.30;73.00
33476;DHT22;19814;48.224;11.422;2023-02-10T15:51:41;5.30;73.00
33476;DHT22;19814;48.224;11.422;2023-02-10T15:54:08;5.30;72.80
33476;DHT22;19814;48.224;11.422;2023-02-10T15:56:36;5.20;73.70
33476;DHT22;19814;48.224;11.422;2023-02-10T15:59:01;5.20;73.70
33476;DHT22;19814;48.224;11.422;2023-02-10T16:01:27;5.10;74.40
33476;DHT22;19814;48.224;11.422;2023-02-10T16:03:52;5.00;75.10
33476;DHT22;19814;48.224;11.422;2023-02-10T16:06:18;4.90;75.40
33476;DHT22;19814;48.224;11.422;2023-02-10T16:08:44;4.70;76.20
33476;DHT22;19814;48.224;11.422;2023-02-10T16:11:10;4.60;76.80
33476;DHT22;19814;48.224;11.422;2023-02-10T16:13:36;4.50;77.30
33476;DHT22;19814;48.224;11.422;2023-02-10T16:16:02;4.40;77.70
33476;DHT22;19814;48.224;11.422;2023-02-10T16:18:27;4.30;78.80
33476;DHT22;19814;48.224;11.422;2023-02-10T16:20:54;4.20;79.60
33476;DHT22;19814;48.224;11.422;2023-02-10T16:23:19;4.00;80.10
33476;DHT22;19814;48.224;11.422;2023-02-10T16:25:46;3.90;80.80
33476;DHT22;19814;48.224;11.422;2023-02-10T16:28:15;3.70;81.40
33476;DHT22;19814;48.224;11.422;2023-02-10T16:30:41;3.60;81.60
33476;DHT22;19814;48.224;11.422;2023-02-10T16:33:06;3.50;82.10
33476;DHT22;19814;48.224;11.422;2023-02-10T16:35:32;3.40;82.30
33476;DHT22;19814;48.224;11.422;2023-02-10T16:37:57;3.20;83.10
33476;DHT22;19814;48.224;11.422;2023-02-10T16:40:27;3.10;83.40
33476;DHT22;19814;48.224;11.422;2023-02-10T16:42:53;3.00;83.80
33476;DHT22;19814;48.224;11.422;2023-02-10T16:45:22;2.80;84.50
33476;DHT22;19814;48.224;11.422;2023-02-10T16:47:48;2.70;85.30
33476;DHT22;19814;48.224;11.422;2023-02-10T16:52:57;2.50;86.90
33476;DHT22;19814;48.224;11.422;2023-02-10T16:55:23;2.40;87.30
33476;DHT22;19814;48.224;11.422;2023-02-10T16:57:49;2.30;87.20
33476;DHT22;19814;48.224;11.422;2023-02-10T17:00:15;2.20;87.20
33476;DHT22;19814;48.224;11.422;2023-02-10T17:02:40;2.20;87.40
33476;DHT22;19814;48.224;11.422;2023-02-10T17:05:06;2.10;87.90